Time;durP1;ratioP1;P1;durP2;ratioP2;P2;SDS_P1;SDS_P2;PMS_P1;PMS_P2;Temp;Humidity;BMP_temperature;BMP_pressure;BME280_temperature;BME280_humidity;BME280_pressure;Samples;Min_cycle;Max_cycle;Signal;HPM_P1;HPM_P2
2023/01/06 00:00:39;;;;;;;2.03;1.83;;;9.90;1.00;;;;;;5050588;28;20430;-52
2023/01/06 00:03:07;;;;;;;2.30;1.80;;;9.90;1.00;;;;;;5055251;28;20206;-53
2023/01/06 00:05:33;;;;;;;2.30;1.73;;;9.90;1.00;;;;;;5059657;28;20180;-52
2023/01/06 00:07:59;;;;;;;4.40;2.10;;;10.00;1.00;;;;;;5046211;28;20857;-55
2023/01/06 00:10:25;;;;;;;5.60;3.27;;;10.00;1.00;;;;;;5047653;28;20453;-53
2023/01/06 00:12:51;;;;;;;3.83;1.60;;;10.10;1.00;;;;;;5049130;28;20444;-54
2023/01/06 00:15:18;;;;;;;3.33;2.00;;;10.10;1.00;;;;;;5046921;28;20198;-54
2023/01/06 00:17:43;;;;;;;4.20;2.00;;;10.10;1.00;;;;;;5047594;28;20256;-53
2023/01/06 00:20:10;;;;;;;2.13;1.60;;;10.10;1.00;;;;;;5049351;28;20977;-54
2023/01/06 00:22:37;;;;;;;5.90;1.83;;;10.10;1.00;;;;;;5053284;28;20190;-53
2023/01/06 00:25:03;;;;;;;2.90;1.90;;;10.10;1.00;;;;;;5047439;28;20453;-54
2023/01/06 00:27:30;;;;;;;4.30;2.33;;;10.10;1.00;;;;;;5048822;28;20426;-51
2023/01/06 00:29:56;;;;;;;5.10;2.50;;;10.00;1.00;;;;;;5047368;28;20440;-54
2023/01/06 00:32:21;;;;;;;4.30;1.90;;;9.90;1.00;;;;;;5047268;28;20529;-54
2023/01/06 00:34:47;;;;;;;3.17;1.83;;;9.90;1.00;;;;;;5049304;28;20552;-53
2023/01/06 00:37:12;;;;;;;2.10;1.90;;;9.90;1.00;;;;;;5048457;28;20256;-52
2023/01/06 00:39:38;;;;;;;4.23;2.20;;;10.00;1.00;;;;;;5048705;28;20190;-54
2023/01/06 00:42:04;;;;;;;3.13;2.30;;;10.00;1.00;;;;;;5061461;28;20189;-55
2023/01/06 00:44:32;;;;;;;2.10;1.70;;;10.00;1.00;;;;;;5050873;28;20198;-54
2023/01/06 00:46:58;;;;;;;6.53;2.57;;;10.00;1.00;;;;;;5056115;28;20495;-53
2023/01/06 00:49:24;;;;;;;2.57;1.80;;;9.90;1.00;;;;;;5046568;28;20872;-55
2023/01/06 00:51:50;;;;;;;3.80;2.30;;;10.00;1.00;;;;;;5051962;28;20456;-52
2023/01/06 00:54:15;;;;;;;3.93;2.10;;;10.00;1.00;;;;;;5053138;28;20431;-53
2023/01/06 00:56:44;;;;;;;3.27;2.50;;;10.00;1.00;;;;;;5053320;28;20748;-52
2023/01/06 00:59:12;;;;;;;4.87;1.90;;;10.00;1.00;;;;;;5052435;28;20456;-51
2023/01/06 01:01:38;;;;;;;2.20;1.80;;;10.00;1.00;;;;;;5048086;28;20796;-55
2023/01/06 01:04:04;;;;;;;2.53;2.07;;;10.10;1.00;;;;;;5046360;28;20561;-53
2023/01/06 01:06:30;;;;;;;2.10;1.87;;;10.10;1.00;;;;;;5048757;28;20881;-52
2023/01/06 01:08:57;;;;;;;4.67;2.20;;;10.00;1.00;;;;;;5054057;28;20984;-54
2023/01/06 01:14:10;;;;;;;2.70;2.40;;;10.00;1.00;;;;;;5046633;28;20477;-53
2023/01/06 01:16:35;;;;;;;3.13;2.27;;;10.10;1.00;;;;;;5052860;28;20511;-54
2023/01/06 01:19:01;;;;;;;2.50;2.13;;;10.00;1.00;;;;;;5047339;28;20830;-53
2023/01/06 01:21:27;;;;;;;2.77;2.30;;;10.10;1.00;;;;;;5062499;28;20220;-54
2023/01/06 01:23:53;;;;;;;3.30;2.13;;;10.10;1.00;;;;;;5049748;28;20188;-51
2023/01/06 01:26:18;;;;;;;10.43;2.87;;;10.00;1.00;;;;;;5048363;28;20520;-54
2023/01/06 01:28:44;;;;;;;4.40;2.70;;;10.00;1.00;;;;;;5051430;28;20187;-54
2023/01/06 01:31:11;;;;;;;4.97;2.90;;;10.00;1.00;;;;;;5051203;28;20220;-53
2023/01/06 01:33:37;;;;;;;4.43;2.93;;;10.00;1.00;;;;;;5053136;28;20183;-55
2023/01/06 01:36:08;;;;;;;5.30;3.07;;;10.00;1.00;;;;;;5056346;28;20431;-52
2023/01/06 01:38:34;;;;;;;8.60;3.87;;;9.90;1.00;;;;;;5057171;28;20550;-53
2023/01/06 01:41:00;;;;;;;5.00;2.87;;;9.90;1.00;;;;;;5056432;28;20920;-54
2023/01/06 01:43:48;;;;;;;6.03;2.70;;;9.90;1.00;;;;;;5058364;28;20449;-52
2023/01/06 01:46:29;;;;;;;4.47;2.70;;;9.90;1.00;;;;;;5052733;28;20949;-51
2023/01/06 01:48:58;;;;;;;4.43;2.80;;;9.90;1.00;;;;;;5062898;28;20470;-54
2023/01/06 01:51:29;;;;;;;4.90;3.00;;;10.00;1.00;;;;;;5055319;28;20917;-56
2023/01/06 01:53:59;;;;;;;5.93;3.53;;;9.90;1.00;;;;;;5061864;28;20440;-51
2023/01/06 01:56:29;;;;;;;6.70;2.87;;;9.90;1.00;;;;;;5055920;28;20451;-53
2023/01/06 01:58:59;;;;;;;4.30;2.70;;;9.90;1.00;;;;;;5051307;28;20535;-56
2023/01/06 02:01:25;;;;;;;4.20;2.67;;;10.00;1.00;;;;;;5049803;28;21007;-53
2023/01/06 02:03:51;;;;;;;4.03;3.63;;;9.80;1.00;;;;;;5053770;28;20448;-53
2023/01/06 02:06:21;;;;;;;6.30;3.40;;;9.80;1.00;;;;;;5052543;28;20536;-54
2023/01/06 02:09:10;;;;;;;4.27;3.97;;;9.80;1.00;;;;;;5049832;28;20424;-54
2023/01/06 02:11:37;;;;;;;6.43;3.17;;;9.80;1.00;;;;;;5052170;28;20448;-55
2023/01/06 02:14:10;;;;;;;5.50;3.37;;;9.80;1.00;;;;;;5050764;28;20445;-52
2023/01/06 02:16:53;;;;;;;6.97;3.00;;;9.70;1.00;;;;;;5049671;28;20940;-52
2023/01/06 02:19:41;;;;;;;8.83;2.80;;;9.70;1.00;;;;;;5054649;28;20942;-52
2023/01/06 02:22:26;;;;;;;4.23;3.77;;;9.70;1.00;;;;;;5050679;28;20428;-52
2023/01/06 02:25:09;;;;;;;7.40;3.10;;;9.60;1.00;;;;;;5055028;28;21038;-54
2023/01/06 02:27:52;;;;;;;3.47;2.80;;;9.60;1.00;;;;;;5049750;28;20448;-52
2023/01/06 02:30:36;;;;;;;3.97;2.77;;;9.60;1.00;;;;;;5047432;28;21025;-53
2023/01/06 02:33:09;;;;;;;3.27;2.10;;;9.60;1.00;;;;;;5048703;28;20884;-55
2023/01/06 02:35:44;;;;;;;3.10;2.43;;;9.50;1.00;;;;;;5060372;28;20444;-52
2023/01/06 02:38:37;;;;;;;3.57;2.90;;;9.50;1.00;;;;;;5053262;28;20469;-55
2023/01/06 02:41:32;;;;;;;6.30;2.70;;;9.60;1.00;;;;;;5061526;28;20458;-53
2023/01/06 02:44:17;;;;;;;3.30;3.00;;;9.60;1.00;;;;;;5038965;28;20474;-52
2023/01/06 02:47:12;;;;;;;3.57;3.07;;;9.50;1.00;;;;;;5050090;28;20443;-54
2023/01/06 02:49:46;;;;;;;7.80;3.07;;;9.60;1.00;;;;;;5060429;28;20516;-53
2023/01/06 02:52:19;;;;;;;5.90;3.20;;;9.60;1.00;;;;;;5054933;28;20490;-54
2023/01/06 02:55:01;;;;;;;6.80;2.93;;;9.60;1.00;;;;;;5052853;28;20475;-52
2023/01/06 02:57:38;;;;;;;5.93;2.70;;;9.60;1.00;;;;;;5049604;28;20483;-53
2023/01/06 03:00:10;;;;;;;5.63;3.20;;;9.60;1.00;;;;;;5059253;28;20418;-50
2023/01/06 03:02:40;;;;;;;3.37;3.07;;;9.70;1.00;;;;;;5056616;28;20493;-53
2023/01/06 03:05:08;;;;;;;2.93;2.60;;;9.70;1.00;;;;;;5058991;28;20451;-54
2023/01/06 03:07:37;;;;;;;4.70;2.57;;;9.60;1.00;;;;;;5051824;28;20441;-53
2023/01/06 03:10:05;;;;;;;5.80;3.77;;;9.60;1.00;;;;;;5048622;28;20510;-54
2023/01/06 03:12:41;;;;;;;5.17;3.23;;;9.60;1.00;;;;;;5050002;28;20464;-53
2023/01/06 03:15:08;;;;;;;3.33;2.50;;;9.50;1.00;;;;;;5058266;28;20478;-53
2023/01/06 03:17:34;;;;;;;3.77;2.43;;;9.50;1.00;;;;;;5055608;28;20981;-54
2023/01/06 03:19:59;;;;;;;4.53;3.17;;;9.50;1.00;;;;;;5048566;28;20469;-53
2023/01/06 03:22:26;;;;;;;4.70;2.70;;;9.50;1.00;;;;;;5055318;28;20516;-54
2023/01/06 03:24:52;;;;;;;3.63;2.50;;;9.50;1.00;;;;;;5054568;28;20182;-51
2023/01/06 03:27:22;;;;;;;6.70;3.07;;;9.60;1.00;;;;;;5058053;28;20460;-52
2023/01/06 03:29:48;;;;;;;4.87;3.50;;;9.60;1.00;;;;;;5054044;28;20466;-55
2023/01/06 03:32:33;;;;;;;4.07;2.83;;;9.60;1.00;;;;;;5065527;28;21194;-54
2023/01/06 03:35:35;;;;;;;3.67;2.50;;;9.60;1.00;;;;;;5048507;28;20735;-51
2023/01/06 03:38:07;;;;;;;4.43;2.80;;;9.60;1.00;;;;;;5060489;28;20442;-54
2023/01/06 03:40:49;;;;;;;2.83;2.17;;;9.50;1.00;;;;;;5060994;28;20411;-55
2023/01/06 03:43:42;;;;;;;2.87;2.63;;;9.60;1.00;;;;;;5047576;28;20734;-51
2023/01/06 03:46:16;;;;;;;6.30;2.80;;;9.60;1.00;;;;;;5053684;28;20411;-51
2023/01/06 03:49:02;;;;;;;2.67;2.07;;;9.60;1.00;;;;;;5057892;28;20531;-52
2023/01/06 03:51:43;;;;;;;3.10;2.30;;;9.60;1.00;;;;;;5060984;28;20452;-52
2023/01/06 03:54:30;;;;;;;3.57;2.57;;;9.60;1.00;;;;;;5055018;28;20978;-52
2023/01/06 03:57:04;;;;;;;2.87;2.00;;;9.50;1.00;;;;;;5047990;28;20571;-54
2023/01/06 03:59:33;;;;;;;5.60;2.70;;;9.50;1.00;;;;;;5048600;28;20431;-54
2023/01/06 04:02:00;;;;;;;2.73;2.17;;;9.50;1.00;;;;;;5048909;28;20446;-54
2023/01/06 04:04:26;;;;;;;2.93;2.40;;;9.40;1.00;;;;;;5053333;28;20954;-53
2023/01/06 04:06:51;;;;;;;5.80;2.23;;;9.40;1.00;;;;;;5051713;28;20513;-52
2023/01/06 04:09:17;;;;;;;3.90;2.20;;;9.40;1.00;;;;;;5048527;28;20201;-53
2023/01/06 04:14:26;;;;;;;3.90;2.30;;;9.70;1.00;;;;;;5048670;28;20204;-53
2023/01/06 04:16:52;;;;;;;7.07;2.40;;;9.60;1.00;;;;;;5047187;28;20527;-50
2023/01/06 04:19:18;;;;;;;6.87;2.43;;;9.60;1.00;;;;;;5049469;28;20620;-54
2023/01/06 04:21:43;;;;;;;3.97;2.27;;;9.50;1.00;;;;;;5047713;28;20203;-54
2023/01/06 04:24:09;;;;;;;8.50;2.10;;;9.60;1.00;;;;;;5055374;28;20269;-55
2023/01/06 04:26:35;;;;;;;2.23;1.90;;;9.60;1.00;;;;;;5045183;28;20221;-52
2023/01/06 04:29:01;;;;;;;2.40;1.97;;;9.70;1.00;;;;;;5062336;28;20246;-54
2023/01/06 04:31:27;;;;;;;3.13;1.90;;;9.70;1.00;;;;;;5051624;28;20247;-54
2023/01/06 04:33:52;;;;;;;4.70;2.60;;;9.70;1.00;;;;;;5047938;28;20454;-53
2023/01/06 04:36:19;;;;;;;4.40;1.93;;;9.60;1.00;;;;;;5051554;28;20610;-53
2023/01/06 04:38:45;;;;;;;3.90;2.10;;;9.60;1.00;;;;;;5052780;28;20717;-53
2023/01/06 04:41:10;;;;;;;3.30;2.50;;;9.60;1.00;;;;;;5052118;28;20420;-53
2023/01/06 04:43:36;;;;;;;4.60;2.47;;;9.60;1.00;;;;;;5051391;28;20190;-53
2023/01/06 04:46:02;;;;;;;4.87;2.33;;;9.80;1.00;;;;;;5049440;28;20296;-54
2023/01/06 04:48:28;;;;;;;2.27;2.03;;;9.60;1.00;;;;;;5053171;28;20234;-53
2023/01/06 04:51:05;;;;;;;4.73;2.47;;;9.60;1.00;;;;;;5053731;28;20501;-52
2023/01/06 04:53:39;;;;;;;2.70;2.50;;;9.50;1.00;;;;;;5058439;28;20183;-51
2023/01/06 04:56:07;;;;;;;2.40;2.20;;;9.60;1.00;;;;;;5049531;28;20532;-53
2023/01/06 04:58:33;;;;;;;6.20;2.47;;;9.50;1.00;;;;;;5058772;28;20469;-55
2023/01/06 05:01:04;;;;;;;2.73;1.80;;;9.60;1.00;;;;;;5051015;28;21052;-53
2023/01/06 05:03:30;;;;;;;3.90;2.07;;;9.50;1.00;;;;;;5056652;28;20840;-51
2023/01/06 05:05:59;;;;;;;7.00;2.53;;;9.60;1.00;;;;;;5050087;28;20471;-54
2023/01/06 05:08:25;;;;;;;5.77;2.80;;;9.60;1.00;;;;;;5052138;28;20190;-53
2023/01/06 05:11:01;;;;;;;7.10;2.70;;;9.60;1.00;;;;;;5051481;28;20769;-51
2023/01/06 05:13:28;;;;;;;3.10;2.50;;;9.70;1.00;;;;;;5052262;28;20200;-52
2023/01/06 05:15:53;;;;;;;5.07;2.30;;;9.60;1.00;;;;;;5052564;28;20455;-52
2023/01/06 05:18:19;;;;;;;4.00;2.27;;;9.50;1.00;;;;;;5049705;28;20952;-54
2023/01/06 05:20:51;;;;;;;4.23;3.00;;;9.60;1.00;;;;;;5051430;28;20195;-52
2023/01/06 05:23:16;;;;;;;5.00;2.43;;;9.60;1.00;;;;;;5054708;28;20264;-52
2023/01/06 05:25:42;;;;;;;4.97;2.50;;;9.70;1.00;;;;;;5051799;28;20502;-54
2023/01/06 05:28:08;;;;;;;4.30;2.37;;;9.60;1.00;;;;;;5051081;28;20191;-52
2023/01/06 05:30:33;;;;;;;4.43;2.13;;;9.80;1.00;;;;;;5051746;28;20204;-53
2023/01/06 05:32:59;;;;;;;6.13;3.20;;;9.80;1.00;;;;;;5052351;28;20264;-52
2023/01/06 05:35:24;;;;;;;4.53;2.73;;;9.80;1.00;;;;;;5051079;28;20190;-53
2023/01/06 05:37:53;;;;;;;3.17;2.50;;;9.70;1.00;;;;;;5050233;28;20264;-51
2023/01/06 05:40:19;;;;;;;5.20;2.77;;;9.60;1.00;;;;;;5051886;28;20544;-52
2023/01/06 05:42:44;;;;;;;3.93;2.23;;;9.70;1.00;;;;;;5050428;28;20449;-53
2023/01/06 05:45:10;;;;;;;5.47;2.83;;;9.70;1.00;;;;;;5052064;28;20239;-52
2023/01/06 05:47:36;;;;;;;5.93;2.70;;;9.70;1.00;;;;;;5049716;28;20192;-54
2023/01/06 05:50:02;;;;;;;4.20;2.17;;;9.60;1.00;;;;;;5051145;28;20812;-53
2023/01/06 05:52:28;;;;;;;4.40;2.73;;;9.60;1.00;;;;;;5055277;28;20277;-52
2023/01/06 05:54:53;;;;;;;6.60;3.20;;;9.60;1.00;;;;;;5051513;28;21147;-54
2023/01/06 05:57:19;;;;;;;5.90;2.50;;;9.70;1.00;;;;;;5050721;28;20214;-53
2023/01/06 05:59:44;;;;;;;4.73;3.07;;;9.60;1.00;;;;;;5053247;28;20183;-52
2023/01/06 06:02:10;;;;;;;5.20;2.97;;;9.60;1.00;;;;;;5053408;28;20191;-53
2023/01/06 06:04:36;;;;;;;4.47;2.77;;;9.60;1.00;;;;;;5049158;28;20202;-53
2023/01/06 06:07:01;;;;;;;4.70;2.70;;;9.70;1.00;;;;;;5051442;28;20193;-52
2023/01/06 06:09:27;;;;;;;4.47;3.20;;;9.60;1.00;;;;;;5048717;28;20281;-53
2023/01/06 06:11:53;;;;;;;5.40;2.90;;;9.70;1.00;;;;;;5050687;28;20225;-54
2023/01/06 06:14:19;;;;;;;4.10;2.97;;;9.70;1.00;;;;;;5049143;28;20194;-54
2023/01/06 06:16:44;;;;;;;10.77;3.97;;;9.60;1.00;;;;;;5050097;28;20461;-53
2023/01/06 06:19:12;;;;;;;8.87;4.10;;;9.70;1.00;;;;;;5052305;28;20197;-52
2023/01/06 06:21:37;;;;;;;3.80;2.90;;;9.70;1.00;;;;;;5050861;28;20286;-52
2023/01/06 06:24:03;;;;;;;7.70;3.87;;;9.70;1.00;;;;;;5050799;28;20994;-52
2023/01/06 06:26:29;;;;;;;9.13;4.00;;;9.70;1.00;;;;;;5050764;28;20192;-53
2023/01/06 06:28:55;;;;;;;6.77;3.60;;;9.70;1.00;;;;;;5050702;28;20824;-52
2023/01/06 06:31:26;;;;;;;8.10;4.27;;;9.80;1.00;;;;;;5053057;28;20291;-53
2023/01/06 06:33:54;;;;;;;8.27;5.10;;;9.80;1.00;;;;;;5052233;28;20450;-54
2023/01/06 06:36:20;;;;;;;8.70;4.43;;;9.80;1.00;;;;;;5052521;28;20445;-54
2023/01/06 06:38:47;;;;;;;5.80;3.70;;;9.90;1.00;;;;;;5053430;28;20422;-55
2023/01/06 06:41:13;;;;;;;8.17;4.23;;;9.90;1.00;;;;;;5053785;28;20741;-53
2023/01/06 06:43:40;;;;;;;10.30;4.10;;;10.00;1.00;;;;;;5050558;28;20450;-53
2023/01/06 06:46:06;;;;;;;7.33;3.50;;;10.00;1.00;;;;;;5052747;28;20447;-54
2023/01/06 06:48:32;;;;;;;7.57;3.63;;;10.00;1.00;;;;;;5059611;28;20480;-52
2023/01/06 06:50:58;;;;;;;6.00;3.47;;;10.00;1.00;;;;;;5050473;28;20461;-55
2023/01/06 06:53:24;;;;;;;6.13;3.87;;;9.90;1.00;;;;;;5049979;28;20653;-52
2023/01/06 06:55:50;;;;;;;6.17;3.90;;;10.00;1.00;;;;;;5051712;28;20496;-53
2023/01/06 06:58:15;;;;;;;11.30;4.63;;;9.90;1.00;;;;;;5055689;28;20747;-52
2023/01/06 07:00:41;;;;;;;8.33;4.30;;;9.90;1.00;;;;;;5054683;28;20604;-54
2023/01/06 07:03:06;;;;;;;9.13;4.13;;;9.90;1.00;;;;;;5049517;28;20191;-56
2023/01/06 07:05:32;;;;;;;11.97;4.60;;;9.90;1.00;;;;;;5054565;28;20190;-56
2023/01/06 07:07:58;;;;;;;7.00;4.10;;;9.90;1.00;;;;;;5061369;28;20206;-54
2023/01/06 07:10:23;;;;;;;7.23;4.60;;;9.90;1.00;;;;;;5055920;28;20194;-51
2023/01/06 07:12:49;;;;;;;10.37;4.83;;;9.90;1.00;;;;;;5050127;28;20211;-52
2023/01/06 07:15:14;;;;;;;8.70;4.70;;;9.90;1.00;;;;;;5055097;28;20189;-53
2023/01/06 07:17:40;;;;;;;7.63;4.13;;;9.90;1.00;;;;;;5051399;28;20207;-52
2023/01/06 07:20:07;;;;;;;6.03;4.30;;;10.00;1.00;;;;;;5063204;28;20188;-54
2023/01/06 07:22:37;;;;;;;6.20;4.50;;;9.90;1.00;;;;;;5050320;28;20430;-54
2023/01/06 07:25:03;;;;;;;8.23;4.90;;;10.00;1.00;;;;;;5050320;28;20452;-54
2023/01/06 07:27:29;;;;;;;6.47;4.70;;;10.10;1.00;;;;;;5066013;28;20432;-59
2023/01/06 07:29:55;;;;;;;6.60;4.70;;;10.10;1.00;;;;;;5060565;28;20425;-56
2023/01/06 07:32:20;;;;;;;6.60;4.60;;;10.10;1.00;;;;;;5049233;28;20189;-52
2023/01/06 07:34:46;;;;;;;9.47;5.60;;;10.10;1.00;;;;;;5049343;28;20236;-52
2023/01/06 07:37:11;;;;;;;9.27;4.93;;;10.10;1.00;;;;;;5063151;28;20243;-53
2023/01/06 07:39:37;;;;;;;8.00;5.83;;;10.10;1.00;;;;;;5058584;28;20534;-54
2023/01/06 07:42:03;;;;;;;10.43;5.27;;;10.20;1.00;;;;;;5061315;28;20201;-55
2023/01/06 07:44:28;;;;;;;8.40;4.67;;;10.30;1.00;;;;;;5057350;28;20194;-53
2023/01/06 07:46:54;;;;;;;8.60;4.83;;;10.20;1.00;;;;;;5050998;28;20203;-52
2023/01/06 07:49:19;;;;;;;6.50;4.80;;;10.20;1.00;;;;;;5056553;28;20567;-52
2023/01/06 07:51:45;;;;;;;9.60;5.70;;;10.30;1.00;;;;;;5054464;28;20202;-53
2023/01/06 07:54:10;;;;;;;9.87;5.53;;;10.30;1.00;;;;;;5061281;28;20264;-55
2023/01/06 07:56:36;;;;;;;10.43;5.90;;;10.40;1.00;;;;;;5049158;28;20548;-54
2023/01/06 07:59:02;;;;;;;11.13;5.73;;;10.40;1.00;;;;;;5050690;28;20182;-54
2023/01/06 08:01:27;;;;;;;12.00;5.30;;;10.40;1.00;;;;;;5054537;28;20189;-54
2023/01/06 08:03:53;;;;;;;7.57;5.50;;;10.40;1.00;;;;;;5058643;28;20208;-54
2023/01/06 08:06:18;;;;;;;11.23;5.67;;;10.50;1.00;;;;;;5067571;28;20251;-54
2023/01/06 08:08:44;;;;;;;9.60;5.90;;;10.50;1.00;;;;;;5047953;28;20786;-55
2023/01/06 08:11:11;;;;;;;12.23;6.23;;;10.50;1.00;;;;;;5048080;28;20193;-55
2023/01/06 08:13:38;;;;;;;10.63;5.80;;;10.40;1.00;;;;;;5050903;28;20190;-53
2023/01/06 08:16:05;;;;;;;9.63;5.70;;;10.60;1.00;;;;;;5049146;28;20818;-54
2023/01/06 08:18:30;;;;;;;7.17;5.70;;;10.60;1.00;;;;;;5058408;28;20814;-52
2023/01/06 08:21:14;;;;;;;9.33;6.17;;;10.60;1.00;;;;;;5069235;28;20445;-54
2023/01/06 08:23:41;;;;;;;15.00;6.80;;;10.50;1.00;;;;;;5057216;28;20194;-55
2023/01/06 08:26:12;;;;;;;7.13;5.60;;;10.50;1.00;;;;;;5062112;28;20450;-53
2023/01/06 08:28:39;;;;;;;14.37;6.67;;;10.50;1.00;;;;;;5069283;28;21022;-55
2023/01/06 08:31:11;;;;;;;8.63;5.63;;;10.50;1.00;;;;;;5059535;28;20426;-53
2023/01/06 08:33:37;;;;;;;6.73;5.30;;;10.50;1.00;;;;;;5051937;28;20431;-54
2023/01/06 08:36:05;;;;;;;10.80;6.07;;;10.50;1.00;;;;;;5068903;28;20426;-53
2023/01/06 08:38:33;;;;;;;10.67;6.10;;;10.60;1.00;;;;;;5059775;28;20534;-54
2023/01/06 08:40:59;;;;;;;8.13;5.73;;;10.60;1.00;;;;;;5060393;28;20438;-55
2023/01/06 08:43:25;;;;;;;9.20;6.30;;;10.50;1.00;;;;;;5062716;28;20456;-54
2023/01/06 08:45:52;;;;;;;8.30;5.77;;;10.60;1.00;;;;;;5061009;28;20529;-53
2023/01/06 08:48:18;;;;;;;9.07;5.97;;;10.50;1.00;;;;;;5052800;28;20566;-52
2023/01/06 08:50:44;;;;;;;8.97;5.40;;;10.60;1.00;;;;;;5063282;28;20909;-55
2023/01/06 08:53:11;;;;;;;8.13;6.53;;;10.70;1.00;;;;;;5062029;28;20427;-54
2023/01/06 08:55:41;;;;;;;7.03;4.53;;;10.70;1.00;;;;;;5052997;28;20429;-55
2023/01/06 08:58:09;;;;;;;7.13;5.33;;;10.90;1.00;;;;;;5057866;28;20442;-54
2023/01/06 09:00:40;;;;;;;8.93;5.63;;;11.10;1.00;;;;;;5051784;28;20416;-53
2023/01/06 09:03:05;;;;;;;7.03;5.07;;;11.30;1.00;;;;;;5061301;28;20412;-56
2023/01/06 09:05:31;;;;;;;7.03;5.53;;;11.50;1.00;;;;;;5055361;28;20454;-54
2023/01/06 09:07:57;;;;;;;6.33;5.00;;;11.60;1.00;;;;;;5058636;28;20196;-54
2023/01/06 09:10:25;;;;;;;6.60;5.80;;;11.70;1.00;;;;;;5053168;28;20739;-53
2023/01/06 09:12:51;;;;;;;7.73;4.47;;;11.90;1.00;;;;;;5059600;28;20260;-54
2023/01/06 09:15:17;;;;;;;7.13;4.77;;;11.90;1.00;;;;;;5058706;28;20937;-55
2023/01/06 09:17:42;;;;;;;8.20;4.70;;;12.00;1.00;;;;;;5072502;28;20208;-54
2023/01/06 09:20:08;;;;;;;6.17;4.30;;;12.00;1.00;;;;;;5057720;28;20194;-54
2023/01/06 09:22:34;;;;;;;7.33;4.70;;;12.10;1.00;;;;;;5059057;28;20203;-55
2023/01/06 09:25:00;;;;;;;6.13;4.60;;;12.00;1.00;;;;;;5053617;28;20433;-54
2023/01/06 09:27:25;;;;;;;7.03;4.87;;;12.00;1.00;;;;;;5052562;28;20917;-52
2023/01/06 09:29:51;;;;;;;5.00;4.37;;;12.00;1.00;;;;;;5053345;28;20644;-56
2023/01/06 09:32:17;;;;;;;7.23;5.50;;;12.00;1.00;;;;;;5050961;28;20190;-53
2023/01/06 09:34:42;;;;;;;6.60;5.83;;;12.00;1.00;;;;;;5055543;28;20617;-54
2023/01/06 09:37:08;;;;;;;5.37;4.33;;;12.00;1.00;;;;;;5050374;28;20236;-54
2023/01/06 09:39:36;;;;;;;5.07;4.57;;;12.00;1.00;;;;;;5051627;28;20198;-53
2023/01/06 09:42:21;;;;;;;8.03;4.93;;;12.00;1.00;;;;;;5051532;28;20541;-52
2023/01/06 09:45:12;;;;;;;5.40;4.50;;;12.00;1.00;;;;;;5063096;28;20897;-54
2023/01/06 09:47:52;;;;;;;7.03;5.03;;;12.00;1.00;;;;;;5050118;28;20480;-54
2023/01/06 09:50:36;;;;;;;6.03;4.60;;;12.00;1.00;;;;;;5052540;28;20950;-52
2023/01/06 09:53:31;;;;;;;7.40;4.47;;;12.00;1.00;;;;;;5051350;28;20457;-55
2023/01/06 09:56:04;;;;;;;7.30;4.87;;;12.00;1.00;;;;;;5055062;28;20466;-54
2023/01/06 09:58:49;;;;;;;5.23;4.60;;;12.00;1.00;;;;;;5050343;28;20460;-53
2023/01/06 10:01:21;;;;;;;7.60;5.03;;;12.10;1.00;;;;;;5071828;28;20469;-52
2023/01/06 10:03:47;;;;;;;6.47;4.60;;;12.30;1.00;;;;;;5056791;28;20422;-54
2023/01/06 10:06:38;;;;;;;5.73;4.23;;;12.40;1.00;;;;;;5070704;28;20447;-54
2023/01/06 10:09:16;;;;;;;5.53;4.60;;;12.50;1.00;;;;;;5068822;28;20928;-55
2023/01/06 10:12:01;;;;;;;6.77;4.70;;;12.50;1.00;;;;;;5051775;28;20787;-54
2023/01/06 10:14:48;;;;;;;8.10;4.37;;;12.50;1.00;;;;;;5055281;28;20491;-51
2023/01/06 10:17:55;;;;;;;4.53;4.00;;;12.50;1.00;;;;;;5061756;28;20483;-52
2023/01/06 10:20:32;;;;;;;5.80;4.30;;;12.50;1.00;;;;;;5034768;28;20449;-54
2023/01/06 10:22:58;;;;;;;5.57;4.80;;;12.60;1.00;;;;;;5051798;28;20512;-53
2023/01/06 10:25:31;;;;;;;5.80;4.73;;;12.70;1.00;;;;;;5053938;28;20427;-53
2023/01/06 10:28:36;;;;;;;4.20;3.80;;;12.70;1.00;;;;;;5051727;28;20207;-55
2023/01/06 10:31:10;;;;;;;5.10;4.40;;;12.90;1.00;;;;;;5058979;28;20411;-52
2023/01/06 10:33:40;;;;;;;4.30;3.80;;;12.80;1.00;;;;;;5061659;28;20450;-54
2023/01/06 10:36:15;;;;;;;5.40;4.27;;;12.90;1.00;;;;;;5065491;28;20453;-55
2023/01/06 10:38:44;;;;;;;4.47;3.80;;;13.00;1.00;;;;;;5052807;28;20869;-53
2023/01/06 10:41:36;;;;;;;5.23;4.33;;;13.00;1.00;;;;;;5055688;28;20792;-53
2023/01/06 10:44:02;;;;;;;5.03;4.17;;;13.00;1.00;;;;;;5067326;28;20927;-53
2023/01/06 10:46:33;;;;;;;3.80;3.40;;;12.90;1.00;;;;;;5050689;28;20419;-53
2023/01/06 10:49:00;;;;;;;5.77;4.10;;;12.90;1.00;;;;;;5057671;28;20565;-54
2023/01/06 10:51:43;;;;;;;6.40;4.83;;;12.90;1.00;;;;;;5065204;28;21173;-53
2023/01/06 10:54:16;;;;;;;4.77;3.83;;;13.00;1.00;;;;;;5050569;28;20503;-54
2023/01/06 10:56:47;;;;;;;4.87;4.47;;;13.00;1.00;;;;;;5050589;28;20443;-54
2023/01/06 10:59:13;;;;;;;6.80;4.57;;;13.00;1.00;;;;;;5050658;28;20438;-54
2023/01/06 11:01:54;;;;;;;6.77;5.30;;;13.00;1.00;;;;;;5061358;28;20548;-55
2023/01/06 11:04:20;;;;;;;5.27;4.77;;;13.00;1.00;;;;;;5049883;28;20556;-56
2023/01/06 11:07:00;;;;;;;5.13;4.30;;;13.00;1.00;;;;;;5061936;28;20492;-51
2023/01/06 11:09:31;;;;;;;4.10;3.70;;;13.10;1.00;;;;;;5058237;28;20411;-55
2023/01/06 11:12:01;;;;;;;5.10;3.90;;;13.10;1.00;;;;;;5055097;28;20434;-55
2023/01/06 11:14:31;;;;;;;5.00;4.13;;;13.10;1.00;;;;;;5057207;28;21069;-55
2023/01/06 11:17:02;;;;;;;4.50;3.83;;;13.00;1.00;;;;;;5048325;28;20950;-55
2023/01/06 11:19:40;;;;;;;6.70;4.17;;;13.10;1.00;;;;;;5048854;28;20422;-51
2023/01/06 11:22:39;;;;;;;7.07;5.37;;;13.00;1.00;;;;;;5070072;28;20513;-54
2023/01/06 11:25:20;;;;;;;8.90;3.30;;;13.00;1.00;;;;;;5056821;28;20432;-52
2023/01/06 11:27:47;;;;;;;2.53;2.03;;;13.20;1.00;;;;;;5059224;28;20423;-54
2023/01/06 11:30:27;;;;;;;2.20;2.00;;;13.30;1.00;;;;;;5066586;28;20440;-55
2023/01/06 11:32:54;;;;;;;1.30;1.10;;;13.70;1.00;;;;;;5058519;28;20460;-55
2023/01/06 11:35:23;;;;;;;1.37;0.97;;;13.80;1.00;;;;;;5060754;28;20430;-54
2023/01/06 11:37:56;;;;;;;1.00;0.80;;;13.70;1.00;;;;;;5054197;28;20462;-52
2023/01/06 11:40:31;;;;;;;0.80;0.60;;;13.80;1.00;;;;;;5058840;28;20433;-53
2023/01/06 11:43:11;;;;;;;0.80;0.70;;;13.90;1.00;;;;;;5048844;28;20780;-55
2023/01/06 11:45:47;;;;;;;1.80;0.63;;;13.80;1.00;;;;;;5049478;28;20446;-55
2023/01/06 11:48:26;;;;;;;0.50;0.50;;;13.80;1.00;;;;;;5049352;28;20444;-54
2023/01/06 11:50:54;;;;;;;0.80;0.60;;;13.80;1.00;;;;;;5069835;28;20444;-53
2023/01/06 11:53:23;;;;;;;1.00;0.70;;;13.80;1.00;;;;;;5054692;28;20428;-52
2023/01/06 11:55:56;;;;;;;0.93;0.67;;;13.90;1.00;;;;;;5049806;28;20412;-55
2023/01/06 11:58:42;;;;;;;0.97;0.60;;;14.00;1.00;;;;;;5046251;28;20517;-56
2023/01/06 12:01:33;;;;;;;1.40;1.30;;;13.90;1.00;;;;;;5058267;28;20451;-55
2023/01/06 12:04:18;;;;;;;1.37;0.80;;;13.90;1.00;;;;;;5069208;28;20444;-55
2023/01/06 12:06:45;;;;;;;0.70;0.70;;;14.00;1.00;;;;;;5049229;28;20753;-54
2023/01/06 12:09:36;;;;;;;1.90;0.53;;;13.90;1.00;;;;;;5048343;28;20444;-54
2023/01/06 12:12:06;;;;;;;0.73;0.70;;;13.70;1.00;;;;;;5049189;28;20414;-54
2023/01/06 12:14:37;;;;;;;0.90;0.80;;;13.50;1.00;;;;;;5064853;28;20975;-54
2023/01/06 12:17:32;;;;;;;1.07;0.70;;;13.30;1.00;;;;;;5066326;28;20473;-54
2023/01/06 12:20:10;;;;;;;1.17;1.07;;;12.90;1.00;;;;;;5066198;28;20447;-55
2023/01/06 12:22:47;;;;;;;0.80;0.70;;;12.60;1.00;;;;;;5058898;28;20444;-53
2023/01/06 12:25:44;;;;;;;0.83;0.83;;;12.40;1.00;;;;;;5051127;28;20963;-55
2023/01/06 12:28:33;;;;;;;0.80;0.80;;;12.30;1.00;;;;;;5061849;28;20450;-53
2023/01/06 12:31:07;;;;;;;1.10;0.90;;;12.20;1.00;;;;;;5056787;28;20441;-54
2023/01/06 12:33:55;;;;;;;0.90;0.90;;;12.30;1.00;;;;;;5066188;28;20480;-53
2023/01/06 12:36:36;;;;;;;1.57;0.80;;;12.30;1.00;;;;;;5059218;28;20538;-55
2023/01/06 12:39:44;;;;;;;1.10;1.00;;;12.30;1.00;;;;;;5066867;28;20410;-54
2023/01/06 12:42:47;;;;;;;2.20;0.83;;;12.30;1.00;;;;;;5035291;28;20473;-55
2023/01/06 12:45:19;;;;;;;1.23;0.90;;;12.30;1.00;;;;;;5047182;28;20623;-52
2023/01/06 12:47:50;;;;;;;1.33;0.60;;;12.30;1.00;;;;;;5063923;28;20849;-52
2023/01/06 12:50:38;;;;;;;1.30;0.60;;;12.40;1.00;;;;;;5064096;28;20423;-53
2023/01/06 12:53:22;;;;;;;1.43;0.90;;;12.50;1.00;;;;;;5049140;28;20516;-53
2023/01/06 12:56:18;;;;;;;1.20;1.10;;;12.50;1.00;;;;;;5052463;28;20442;-53
2023/01/06 12:58:53;;;;;;;3.43;2.60;;;12.40;1.00;;;;;;5058584;28;20476;-55
2023/01/06 13:01:18;;;;;;;3.30;1.20;;;12.50;1.00;;;;;;5048760;28;20431;-52
2023/01/06 13:04:06;;;;;;;1.07;0.70;;;12.60;1.00;;;;;;5065587;28;20440;-54
2023/01/06 13:06:56;;;;;;;0.73;0.70;;;12.70;1.00;;;;;;5052617;28;20181;-54
2023/01/06 13:09:33;;;;;;;0.97;0.70;;;12.70;1.00;;;;;;5061851;28;20444;-55
2023/01/06 13:12:04;;;;;;;0.90;0.70;;;12.80;1.00;;;;;;5048398;28;20533;-53
2023/01/06 13:14:56;;;;;;;0.87;0.70;;;12.90;1.00;;;;;;5048575;28;20432;-53
2023/01/06 13:17:49;;;;;;;0.63;0.63;;;11.60;1.00;;;;;;5058498;28;20500;-53
2023/01/06 13:20:43;;;;;;;1.17;0.57;;;13.00;1.00;;;;;;5055781;28;20480;-54
2023/01/06 13:23:34;;;;;;;0.60;0.50;;;12.90;1.00;;;;;;5046521;28;20424;-52
2023/01/06 13:26:08;;;;;;;0.77;0.57;;;12.90;1.00;;;;;;5052213;28;20800;-51
2023/01/06 13:28:37;;;;;;;2.00;0.80;;;12.90;1.00;;;;;;5053069;28;20531;-51